createdAt,value
2022-10-18T00:02:20.405Z,81.89
2022-10-18T00:04:47.051Z,82.24
2022-10-18T00:07:13.494Z,82.04
2022-10-18T00:09:39.834Z,82.09
2022-10-18T00:12:06.187Z,81.86
2022-10-18T00:14:32.670Z,81.98
2022-10-18T00:16:59.057Z,81.79
2022-10-18T00:19:28.524Z,81.98
2022-10-18T00:21:55.941Z,82.16
2022-10-18T00:24:22.314Z,82.20
2022-10-18T00:26:48.672Z,82.05
2022-10-18T00:29:16.029Z,81.90
2022-10-18T00:31:43.698Z,81.60
2022-10-18T00:34:13.377Z,81.75
2022-10-18T00:36:40.446Z,81.63
2022-10-18T00:39:09.303Z,81.90
2022-10-18T00:41:37.863Z,81.91
2022-10-18T00:44:27.266Z,81.73
2022-10-18T00:47:04.826Z,81.42
2022-10-18T00:49:34.682Z,81.73
2022-10-18T00:52:05.322Z,81.56
2022-10-18T00:54:34.541Z,81.48
2022-10-18T00:57:01.521Z,81.39
2022-10-18T00:59:29.133Z,81.74
2022-10-18T01:01:55.559Z,81.77
2022-10-18T01:04:22.541Z,81.49
2022-10-18T01:07:07.421Z,81.66
2022-10-18T01:09:44.989Z,81.35
2022-10-18T01:12:33.075Z,81.57
2022-10-18T01:15:23.885Z,81.13
2022-10-18T01:18:32.826Z,81.35
2022-10-18T01:21:07.900Z,81.37
2022-10-18T01:24:09.333Z,81.35
2022-10-18T01:27:18.952Z,81.18
2022-10-18T01:30:03.025Z,81.40
2022-10-18T01:32:47.285Z,81.35
2022-10-18T01:35:21.227Z,81.27
2022-10-18T01:37:50.652Z,81.10
2022-10-18T01:40:21.677Z,81.42
2022-10-18T01:42:49.876Z,81.11
2022-10-18T01:45:17.086Z,81.11
2022-10-18T01:47:46.052Z,81.05
2022-10-18T01:50:12.807Z,81.32
2022-10-18T01:52:49.926Z,81.17
2022-10-18T01:55:17.300Z,80.92
2022-10-18T01:58:03.681Z,81.06
2022-10-18T02:00:42.388Z,81.17
2022-10-18T02:03:20.948Z,81.00
2022-10-18T02:06:01.826Z,80.94
2022-10-18T02:08:34.674Z,80.78
2022-10-18T02:11:05.336Z,81.02
2022-10-18T02:13:38.441Z,80.46
2022-10-18T02:16:10.351Z,80.76
2022-10-18T02:18:45.585Z,80.65
2022-10-18T02:21:17.377Z,80.51
2022-10-18T02:23:46.033Z,80.73
2022-10-18T02:26:14.476Z,80.59
2022-10-18T02:28:42.742Z,80.82
2022-10-18T02:31:19.393Z,80.53
2022-10-18T02:34:00.713Z,80.86
2022-10-18T02:36:45.328Z,80.65
2022-10-18T02:39:16.217Z,80.70
2022-10-18T02:41:43.304Z,80.58
2022-10-18T02:44:10.581Z,80.74
2022-10-18T02:46:37.183Z,80.59
2022-10-18T02:49:03.572Z,80.42
2022-10-18T02:51:30.060Z,80.51
2022-10-18T02:53:56.429Z,80.68
2022-10-18T02:56:22.845Z,80.71
2022-10-18T02:58:49.217Z,80.41
2022-10-18T03:01:15.668Z,80.60
2022-10-18T03:03:42.101Z,80.51
2022-10-18T03:06:08.442Z,80.52
2022-10-18T03:08:36.260Z,80.38
2022-10-18T03:11:02.640Z,80.46
2022-10-18T03:15:56.302Z,80.45
2022-10-18T03:18:22.706Z,80.46
2022-10-18T03:20:49.044Z,80.56
2022-10-18T03:23:15.430Z,80.25
2022-10-18T03:25:45.634Z,80.26
2022-10-18T03:28:12.855Z,80.37
2022-10-18T03:30:39.209Z,80.22
2022-10-18T03:33:08.336Z,80.32
2022-10-18T03:35:34.690Z,80.33
2022-10-18T03:38:01.057Z,80.43
2022-10-18T03:40:27.472Z,80.58
2022-10-18T03:42:53.814Z,80.44
2022-10-18T03:45:20.179Z,80.41
2022-10-18T03:47:46.526Z,80.36
2022-10-18T03:50:13.125Z,80.42
2022-10-18T03:52:39.502Z,80.43
2022-10-18T03:55:06.592Z,80.54
2022-10-18T03:57:32.957Z,80.35
2022-10-18T03:59:59.339Z,80.32
2022-10-18T04:02:26.442Z,80.14
2022-10-18T04:04:52.781Z,80.31
2022-10-18T04:07:19.358Z,80.20
2022-10-18T04:09:45.724Z,80.20
2022-10-18T04:12:12.065Z,80.40
2022-10-18T04:14:38.442Z,80.32
2022-10-18T04:17:04.804Z,80.55
2022-10-18T04:19:31.177Z,80.41
2022-10-18T04:21:57.518Z,80.43
2022-10-18T04:24:23.960Z,80.44
2022-10-18T04:26:50.302Z,80.50
2022-10-18T04:29:16.675Z,80.65
2022-10-18T04:31:43.165Z,80.49
2022-10-18T04:34:10.428Z,80.38
2022-10-18T04:36:37.096Z,80.58
2022-10-18T04:39:03.483Z,80.59
2022-10-18T04:41:29.853Z,80.66
2022-10-18T04:43:56.258Z,80.23
2022-10-18T04:46:22.640Z,80.22
2022-10-18T04:48:49.000Z,80.48
2022-10-18T04:51:15.377Z,80.51
2022-10-18T04:53:41.719Z,80.37
2022-10-18T04:56:08.690Z,80.35
2022-10-18T04:58:35.091Z,80.20
2022-10-18T05:01:05.426Z,80.04
2022-10-18T05:03:32.064Z,79.84
2022-10-18T05:06:01.893Z,79.71
2022-10-18T05:08:30.922Z,79.87
2022-10-18T05:10:57.518Z,79.82
2022-10-18T05:13:23.990Z,79.91
2022-10-18T05:15:50.323Z,79.81
2022-10-18T05:18:16.763Z,79.40
2022-10-18T05:20:43.130Z,79.43
2022-10-18T05:23:12.196Z,79.43
2022-10-18T05:25:42.779Z,79.21
2022-10-18T05:28:11.130Z,79.09
2022-10-18T05:30:53.746Z,79.16
2022-10-18T05:33:20.110Z,79.05
2022-10-18T05:35:46.483Z,79.11
2022-10-18T05:38:12.850Z,79.00
2022-10-18T05:40:39.540Z,78.78
2022-10-18T05:43:05.908Z,78.75
2022-10-18T05:45:32.250Z,78.62
2022-10-18T05:47:58.620Z,78.78
2022-10-18T05:50:25.060Z,78.80
2022-10-18T05:52:51.432Z,78.81
2022-10-18T05:55:17.801Z,78.91
2022-10-18T05:57:48.802Z,78.36
2022-10-18T06:00:15.205Z,78.53
2022-10-18T06:02:41.613Z,78.63
2022-10-18T06:05:08.114Z,78.48
2022-10-18T06:07:34.909Z,78.26
2022-10-18T06:10:01.467Z,78.25
2022-10-18T06:12:27.845Z,78.42
2022-10-18T06:14:54.269Z,78.72
2022-10-18T06:17:20.733Z,78.44
2022-10-18T06:19:47.142Z,78.38
2022-10-18T06:22:13.594Z,78.41
2022-10-18T06:24:39.970Z,78.42
2022-10-18T06:27:09.145Z,78.10
2022-10-18T06:29:36.980Z,78.42
2022-10-18T06:32:04.582Z,78.10
2022-10-18T06:34:31.092Z,78.40
2022-10-18T06:36:58.795Z,82.06
2022-10-18T06:39:25.950Z,79.14
2022-10-18T06:41:52.763Z,78.11
2022-10-18T06:44:20.808Z,78.39
2022-10-18T06:46:48.390Z,78.37
2022-10-18T06:49:18.323Z,78.20
2022-10-18T06:51:46.105Z,78.11
2022-10-18T06:54:17.961Z,78.20
2022-10-18T06:56:45.059Z,78.32
2022-10-18T06:59:11.467Z,78.18
2022-10-18T07:01:37.874Z,78.30
2022-10-18T07:04:04.443Z,78.70
2022-10-18T07:06:30.797Z,78.42
2022-10-18T07:08:57.435Z,78.57
2022-10-18T07:11:26.095Z,78.56
2022-10-18T07:13:54.403Z,78.36
2022-10-18T07:16:21.041Z,78.37
2022-10-18T07:18:50.135Z,78.51
2022-10-18T07:21:21.779Z,78.57
2022-10-18T07:23:49.107Z,78.66
2022-10-18T07:26:19.681Z,79.53
2022-10-18T07:28:49.175Z,79.84
2022-10-18T07:31:16.958Z,81.44
2022-10-18T07:33:43.294Z,80.04
2022-10-18T07:36:11.724Z,78.93
2022-10-18T07:38:38.499Z,78.84
2022-10-18T07:41:07.103Z,78.84
2022-10-18T07:43:34.739Z,78.80
2022-10-18T07:46:03.858Z,78.80
2022-10-18T07:48:30.842Z,78.89
2022-10-18T07:51:01.193Z,78.99
2022-10-18T07:53:28.985Z,79.01
2022-10-18T07:56:07.101Z,79.18
2022-10-18T07:58:35.773Z,79.16
2022-10-18T08:01:04.042Z,79.12
2022-10-18T08:03:30.805Z,79.26
2022-10-18T08:05:57.448Z,79.34
2022-10-18T08:08:25.066Z,79.09
2022-10-18T08:10:51.577Z,79.10
2022-10-18T08:13:18.520Z,79.27
2022-10-18T08:15:44.904Z,79.55
2022-10-18T08:18:12.081Z,79.74
2022-10-18T08:20:43.632Z,79.74
2022-10-18T08:23:10.250Z,79.75
2022-10-18T08:28:08.017Z,79.60
2022-10-18T08:30:35.115Z,79.40
2022-10-18T08:33:02.216Z,79.43
2022-10-18T08:35:28.640Z,79.55
2022-10-18T08:37:55.066Z,79.61
2022-10-18T08:40:21.493Z,79.71
2022-10-18T08:43:09.663Z,79.32
2022-10-18T08:45:43.252Z,79.11
2022-10-18T08:48:38.138Z,79.44
2022-10-18T08:51:14.645Z,79.16
2022-10-18T08:53:56.606Z,79.29
2022-10-18T08:56:24.407Z,79.22
2022-10-18T08:58:50.786Z,79.08
2022-10-18T09:01:31.496Z,79.06
2022-10-18T09:04:32.633Z,78.75
2022-10-18T09:07:11.045Z,78.50
2022-10-18T09:09:47.357Z,77.98
2022-10-18T09:12:42.688Z,77.50
2022-10-18T09:15:16.690Z,77.36
2022-10-18T09:18:28.065Z,77.35
2022-10-18T09:20:59.658Z,77.12
2022-10-18T09:23:47.282Z,76.76
2022-10-18T09:26:24.572Z,75.95
2022-10-18T09:29:14.270Z,76.06
2022-10-18T09:32:01.017Z,75.57
2022-10-18T09:34:42.457Z,75.35
2022-10-18T09:37:16.404Z,75.12
2022-10-18T09:39:43.571Z,74.53
2022-10-18T09:42:35.814Z,74.24
2022-10-18T09:45:08.513Z,74.01
2022-10-18T09:47:41.033Z,74.02
2022-10-18T09:50:38.217Z,73.30
2022-10-18T09:53:11.534Z,73.33
2022-10-18T09:55:59.329Z,72.92
2022-10-18T09:58:32.009Z,72.24
2022-10-18T10:00:59.439Z,72.37
2022-10-18T10:03:25.834Z,71.78
2022-10-18T10:06:15.099Z,71.13
2022-10-18T10:08:44.185Z,71.26
2022-10-18T10:11:32.364Z,70.95
2022-10-18T10:14:30.194Z,69.78
2022-10-18T10:16:58.352Z,68.96
2022-10-18T10:19:37.745Z,69.26
2022-10-18T10:22:08.937Z,69.25
2022-10-18T10:24:47.588Z,69.60
2022-10-18T10:27:34.935Z,69.15
2022-10-18T10:30:06.721Z,69.64
2022-10-18T10:32:47.143Z,69.43
2022-10-18T10:35:53.207Z,69.00
2022-10-18T10:38:25.275Z,69.43
2022-10-18T10:40:52.076Z,69.40
2022-10-18T10:43:38.918Z,69.59
2022-10-18T10:46:10.047Z,69.30
2022-10-18T10:48:46.963Z,68.84
2022-10-18T10:51:14.278Z,67.60
2022-10-18T10:53:58.353Z,67.15
2022-10-18T10:56:31.265Z,67.02
2022-10-18T10:59:18.622Z,66.64
2022-10-18T11:01:47.623Z,66.57
2022-10-18T11:04:29.634Z,66.05
2022-10-18T11:07:06.685Z,66.61
2022-10-18T11:09:50.401Z,66.07
2022-10-18T11:12:39.228Z,66.52
2022-10-18T11:15:20.724Z,66.18
2022-10-18T11:18:10.661Z,65.57
2022-10-18T11:20:47.056Z,65.81
2022-10-18T11:23:15.899Z,66.25
2022-10-18T11:26:01.011Z,66.31
2022-10-18T11:28:36.628Z,66.21
2022-10-18T11:31:14.137Z,65.91
2022-10-18T11:34:14.297Z,66.50
2022-10-18T11:37:23.041Z,66.80
2022-10-18T11:39:54.222Z,66.65
2022-10-18T11:42:37.801Z,65.85
2022-10-18T11:45:28.005Z,65.81
2022-10-18T11:48:02.234Z,65.93
2022-10-18T11:51:13.670Z,65.84
2022-10-18T11:54:07.641Z,65.41
2022-10-18T11:56:47.365Z,64.46
2022-10-18T11:59:43.077Z,64.00
2022-10-18T12:02:40.052Z,64.08
2022-10-18T12:05:23.131Z,63.09
2022-10-18T12:07:58.840Z,63.48
2022-10-18T12:10:44.113Z,62.94
2022-10-18T12:13:23.522Z,62.35
2022-10-18T12:15:51.600Z,61.98
2022-10-18T12:18:21.725Z,61.75
2022-10-18T12:20:59.164Z,59.88
2022-10-18T12:23:42.315Z,59.62
2022-10-18T12:26:11.073Z,58.74
2022-10-18T12:28:56.583Z,58.74
2022-10-18T12:31:37.763Z,57.56
2022-10-18T12:34:22.595Z,56.49
2022-10-18T12:39:58.441Z,56.50
2022-10-18T12:42:32.818Z,56.47
2022-10-18T12:45:28.614Z,56.63
2022-10-18T12:48:05.793Z,57.14
2022-10-18T12:50:36.608Z,57.27
2022-10-18T12:53:20.158Z,58.05
2022-10-18T12:55:51.296Z,58.91
2022-10-18T12:58:22.824Z,58.93
2022-10-18T13:00:49.144Z,58.25
2022-10-18T13:03:18.394Z,57.89
2022-10-18T13:05:56.088Z,58.12
2022-10-18T13:08:29.025Z,58.45
2022-10-18T13:11:01.346Z,58.84
2022-10-18T13:14:05.564Z,59.15
2022-10-18T13:16:39.767Z,59.29
2022-10-18T13:19:39.137Z,59.13
2022-10-18T13:22:23.762Z,58.89
2022-10-18T13:25:19.239Z,58.78
2022-10-18T13:28:17.464Z,59.34
2022-10-18T13:31:22.961Z,60.06
2022-10-18T13:33:49.582Z,58.43
2022-10-18T13:36:22.840Z,59.38
2022-10-18T13:38:57.102Z,59.07
2022-10-18T13:41:43.211Z,59.48
2022-10-18T13:44:37.675Z,59.39
2022-10-18T13:47:04.087Z,60.24
2022-10-18T13:49:39.323Z,60.76
2022-10-18T13:52:26.610Z,61.42
2022-10-18T13:55:25.295Z,61.22
2022-10-18T13:58:09.882Z,60.87
2022-10-18T14:00:53.456Z,61.06
2022-10-18T14:04:11.090Z,61.87
2022-10-18T14:06:43.483Z,62.13
2022-10-18T14:09:40.423Z,62.45
2022-10-18T14:12:28.591Z,61.86
2022-10-18T14:15:05.196Z,61.81
2022-10-18T14:20:14.923Z,61.88
2022-10-18T14:22:47.998Z,61.78
2022-10-18T14:25:26.425Z,61.73
2022-10-18T14:28:19.864Z,61.57
2022-10-18T14:30:59.703Z,61.75
2022-10-18T14:33:37.896Z,62.38
2022-10-18T14:36:12.938Z,62.42
2022-10-18T14:38:57.158Z,61.90
2022-10-18T14:41:26.180Z,62.19
2022-10-18T14:44:09.265Z,62.38
2022-10-18T14:46:44.960Z,62.46
2022-10-18T14:49:13.425Z,62.36
2022-10-18T14:51:43.441Z,62.14
2022-10-18T14:54:33.732Z,62.49
2022-10-18T14:57:01.206Z,63.17
2022-10-18T14:59:32.200Z,63.23
2022-10-18T15:02:02.014Z,63.67
2022-10-18T15:04:35.030Z,63.83
2022-10-18T15:07:04.588Z,63.88
2022-10-18T15:09:34.106Z,63.90
2022-10-18T15:12:03.157Z,64.08
2022-10-18T15:14:30.128Z,64.51
2022-10-18T15:17:02.529Z,64.42
2022-10-18T15:19:35.420Z,63.82
2022-10-18T15:22:31.786Z,63.66
2022-10-18T15:25:05.825Z,63.80
2022-10-18T15:27:36.908Z,64.35
2022-10-18T15:30:10.913Z,64.29
2022-10-18T15:32:37.802Z,64.28
2022-10-18T15:35:18.501Z,64.34
2022-10-18T15:37:48.553Z,64.99
2022-10-18T15:40:23.944Z,65.02
2022-10-18T15:42:52.541Z,65.35
2022-10-18T15:48:15.145Z,65.03
2022-10-18T15:50:50.365Z,65.49
2022-10-18T15:53:22.830Z,66.10
2022-10-18T15:56:11.437Z,66.02
2022-10-18T15:58:46.338Z,66.10
2022-10-18T16:01:27.183Z,66.48
2022-10-18T16:06:20.869Z,66.38
2022-10-18T16:08:50.577Z,67.27
2022-10-18T16:11:23.209Z,67.18
2022-10-18T16:13:50.488Z,66.77
2022-10-18T16:16:25.889Z,66.88
2022-10-18T16:18:52.967Z,66.71
2022-10-18T16:21:20.864Z,66.64
2022-10-18T16:23:48.810Z,67.08
2022-10-18T16:26:16.638Z,67.05
2022-10-18T16:28:43.563Z,67.00
2022-10-18T16:33:47.577Z,67.41
2022-10-18T16:36:16.628Z,67.50
2022-10-18T16:38:44.496Z,67.80
2022-10-18T16:41:11.245Z,68.04
2022-10-18T16:43:38.170Z,68.00
2022-10-18T16:46:05.678Z,67.71
2022-10-18T16:48:32.760Z,68.24
2022-10-18T16:50:59.539Z,67.99
2022-10-18T16:53:26.206Z,68.46
2022-10-18T16:55:58.673Z,68.46
2022-10-18T16:58:26.987Z,68.52
2022-10-18T17:00:53.444Z,68.79
2022-10-18T17:03:19.956Z,68.96
2022-10-18T17:05:46.362Z,68.98
2022-10-18T17:08:27.309Z,69.03
2022-10-18T17:10:56.870Z,69.04
2022-10-18T17:13:24.404Z,68.96
2022-10-18T17:15:51.825Z,69.04
2022-10-18T17:18:23.407Z,69.23
2022-10-18T17:20:50.237Z,68.86
2022-10-18T17:23:16.703Z,69.14
2022-10-18T17:25:57.433Z,69.19
2022-10-18T17:28:31.324Z,69.17
2022-10-18T17:30:57.793Z,69.34
2022-10-18T17:33:24.218Z,69.34
2022-10-18T17:35:50.569Z,69.47
2022-10-18T17:38:16.989Z,69.51
2022-10-18T17:40:43.556Z,69.69
2022-10-18T17:43:10.255Z,69.69
2022-10-18T17:45:36.619Z,69.85
2022-10-18T17:48:03.090Z,69.81
2022-10-18T17:50:29.485Z,70.04
2022-10-18T17:52:56.860Z,70.20
2022-10-18T17:55:23.280Z,70.22
2022-10-18T17:57:51.422Z,69.99
2022-10-18T18:00:17.971Z,70.22
2022-10-18T18:02:44.729Z,70.27
2022-10-18T18:05:12.535Z,70.33
2022-10-18T18:07:38.917Z,70.31
2022-10-18T18:10:05.748Z,70.41
2022-10-18T18:12:32.424Z,70.81
2022-10-18T18:14:59.083Z,70.92
2022-10-18T18:17:33.970Z,71.01
2022-10-18T18:20:07.141Z,70.98
2022-10-18T18:22:34.574Z,71.08
2022-10-18T18:25:01.728Z,70.85
2022-10-18T18:27:28.126Z,70.94
2022-10-18T18:29:54.922Z,71.10
2022-10-18T18:32:21.291Z,71.36
2022-10-18T18:34:47.680Z,71.37
2022-10-18T18:37:14.115Z,71.24
2022-10-18T18:39:40.560Z,71.24
2022-10-18T18:42:07.341Z,71.34
2022-10-18T18:44:33.939Z,71.20
2022-10-18T18:47:01.310Z,70.96
2022-10-18T18:49:27.981Z,71.28
2022-10-18T18:51:54.449Z,71.23
2022-10-18T18:54:21.997Z,71.62
2022-10-18T18:56:48.367Z,71.50
2022-10-18T18:59:15.775Z,71.54
2022-10-18T19:01:42.956Z,71.58
2022-10-18T19:04:10.258Z,71.54
2022-10-18T19:06:39.299Z,71.75
2022-10-18T19:09:12.041Z,71.78
2022-10-18T19:11:39.477Z,72.14
2022-10-18T19:14:07.766Z,71.92
2022-10-18T19:16:38.357Z,71.95
2022-10-18T19:19:06.138Z,72.09
2022-10-18T19:21:38.054Z,72.15
2022-10-18T19:24:05.729Z,72.31
2022-10-18T19:26:39.507Z,72.42
2022-10-18T19:29:09.582Z,72.36
2022-10-18T19:31:36.633Z,72.47
2022-10-18T19:34:05.167Z,72.56
2022-10-18T19:36:31.686Z,72.45
2022-10-18T19:38:58.389Z,72.61
2022-10-18T19:43:57.257Z,72.39
2022-10-18T19:46:24.547Z,72.48
2022-10-18T19:48:51.483Z,72.79
2022-10-18T19:51:21.024Z,72.58
2022-10-18T19:53:49.352Z,72.68
2022-10-18T19:56:22.285Z,72.59
2022-10-18T19:58:49.474Z,72.49
2022-10-18T20:01:17.090Z,72.61
2022-10-18T20:03:44.474Z,72.70
2022-10-18T20:06:11.017Z,72.59
2022-10-18T20:08:38.034Z,72.37
2022-10-18T20:11:16.373Z,72.44
2022-10-18T20:13:43.490Z,72.65
2022-10-18T20:16:11.722Z,72.61
2022-10-18T20:18:38.445Z,72.57
2022-10-18T20:21:06.159Z,72.35
2022-10-18T20:23:34.890Z,72.20
2022-10-18T20:26:04.057Z,72.48
2022-10-18T20:28:30.528Z,72.43
2022-10-18T20:31:01.667Z,72.56
2022-10-18T20:33:29.195Z,72.53
2022-10-18T20:35:55.630Z,72.67
2022-10-18T20:38:22.342Z,72.06
2022-10-18T20:40:48.693Z,72.15
2022-10-18T20:43:15.081Z,72.08
2022-10-18T20:45:41.470Z,72.13
2022-10-18T20:48:07.886Z,72.05
2022-10-18T20:50:34.276Z,71.96
2022-10-18T20:53:00.652Z,72.09
2022-10-18T20:55:28.885Z,72.30
2022-10-18T20:57:55.242Z,72.33
2022-10-18T21:00:21.641Z,72.29
2022-10-18T21:02:48.102Z,72.46
2022-10-18T21:05:16.438Z,72.26
2022-10-18T21:07:42.809Z,72.64
2022-10-18T21:10:09.298Z,72.32
2022-10-18T21:12:36.053Z,72.25
2022-10-18T21:15:02.663Z,72.23
2022-10-18T21:17:29.154Z,72.14
2022-10-18T21:19:55.533Z,72.12
2022-10-18T21:22:21.893Z,72.14
2022-10-18T21:24:50.484Z,71.71
2022-10-18T21:27:16.878Z,71.67
2022-10-18T21:29:43.262Z,71.66
2022-10-18T21:32:09.720Z,71.55
2022-10-18T21:34:36.061Z,71.37
2022-10-18T21:37:02.441Z,71.30
2022-10-18T21:39:29.918Z,71.54
2022-10-18T21:41:56.482Z,71.23
2022-10-18T21:44:23.088Z,71.35
2022-10-18T21:46:50.562Z,71.31
2022-10-18T21:49:17.298Z,71.34
2022-10-18T21:51:44.213Z,71.47
2022-10-18T21:54:12.607Z,71.34
2022-10-18T21:56:39.036Z,71.10
2022-10-18T21:59:05.706Z,71.41
2022-10-18T22:01:34.934Z,71.32
2022-10-18T22:04:04.160Z,71.25
2022-10-18T22:09:08.174Z,71.17
2022-10-18T22:11:44.808Z,71.40
2022-10-18T22:14:11.443Z,71.26
2022-10-18T22:16:38.069Z,71.21
2022-10-18T22:19:05.934Z,71.50
2022-10-18T22:21:33.729Z,71.49
2022-10-18T22:24:00.169Z,71.79
2022-10-18T22:26:28.568Z,71.48
2022-10-18T22:28:56.891Z,71.53
2022-10-18T22:31:26.260Z,71.45
2022-10-18T22:33:57.585Z,71.18
2022-10-18T22:36:25.326Z,70.89
2022-10-18T22:38:51.867Z,70.75
2022-10-18T22:41:18.569Z,70.88
2022-10-18T22:43:45.349Z,70.87
2022-10-18T22:46:13.516Z,70.89
2022-10-18T22:48:40.609Z,70.96
2022-10-18T22:51:07.968Z,70.96
2022-10-18T22:53:34.762Z,71.37
2022-10-18T22:56:01.453Z,71.13
2022-10-18T22:58:28.030Z,71.31
2022-10-18T23:01:02.620Z,71.24
2022-10-18T23:03:29.387Z,71.41
2022-10-18T23:05:56.077Z,70.83
2022-10-18T23:08:22.612Z,71.14
2022-10-18T23:10:56.222Z,71.21
2022-10-18T23:13:23.873Z,71.27
2022-10-18T23:15:50.870Z,71.22
2022-10-18T23:18:17.933Z,71.46
2022-10-18T23:20:45.481Z,71.36
2022-10-18T23:23:12.937Z,71.63
2022-10-18T23:25:39.686Z,71.67
2022-10-18T23:28:06.413Z,71.88
2022-10-18T23:30:32.874Z,72.08
2022-10-18T23:32:59.244Z,72.16
2022-10-18T23:35:25.721Z,71.99
2022-10-18T23:37:52.582Z,71.98
2022-10-18T23:40:18.986Z,72.07
2022-10-18T23:42:45.425Z,72.34
2022-10-18T23:45:11.790Z,72.42
2022-10-18T23:47:38.161Z,72.53
2022-10-18T23:50:05.004Z,72.76
2022-10-18T23:52:31.384Z,72.25
2022-10-18T23:54:57.760Z,72.67
2022-10-18T23:57:24.102Z,72.79
2022-10-18T23:59:50.455Z,72.62
